Time,TemperatureF,DewpointF,PressureIn,WindDirection,WindDirectionDegrees,WindSpeedMPH,WindSpeedGustMPH,Humidity,HourlyPrecipIn,Conditions,Clouds,dailyrainin,SoftwareType,DateUTC
2013-05-19 00:01:00,55.0,42.0,30.04,South,183,0.0,0.0,62,0.00,,,0.00,,2013-05-19 07:01:00,
2013-05-19 00:11:00,55.0,42.0,30.04,South,183,0.0,0.0,62,0.00,,,0.00,,2013-05-19 07:11:00,
2013-05-19 00:21:00,55.0,42.0,30.04,South,183,0.0,0.0,62,0.00,,,0.00,,2013-05-19 07:21:00,
2013-05-19 00:31:00,53.0,42.0,30.08,South,182,0.0,1.0,66,0.00,,,0.00,,2013-05-19 07:31:00,
2013-05-19 00:41:00,53.0,42.0,30.08,South,182,0.0,1.0,66,0.00,,,0.00,,2013-05-19 07:41:00,
2013-05-19 00:52:00,53.0,42.0,30.08,South,182,0.0,1.0,66,0.00,,,0.00,,2013-05-19 07:52:00,
2013-05-19 01:01:00,51.0,41.0,30.05,South,183,0.0,0.0,69,0.00,,,0.00,,2013-05-19 08:01:00,
2013-05-19 01:11:00,51.0,41.0,30.05,South,183,0.0,0.0,69,0.00,,,0.00,,2013-05-19 08:11:00,
2013-05-19 01:21:00,51.0,42.0,30.07,South,183,0.0,2.0,71,0.00,,,0.00,,2013-05-19 08:21:00,
2013-05-19 01:32:00,50.0,41.0,30.04,South,183,0.0,0.0,72,0.00,,,0.00,,2013-05-19 08:32:00,
2013-05-19 01:41:00,50.0,41.0,30.04,South,183,0.0,0.0,72,0.00,,,0.00,,2013-05-19 08:41:00,
2013-05-19 01:51:00,50.0,41.0,30.04,South,183,0.0,0.0,72,0.00,,,0.00,,2013-05-19 08:51:00,
2013-05-19 02:01:00,49.0,41.0,30.03,South,183,0.0,0.0,75,0.00,,,0.00,,2013-05-19 09:01:00,
2013-05-19 02:21:00,48.0,41.0,30.03,South,183,0.0,0.0,76,0.00,,,0.00,,2013-05-19 09:21:00,
2013-05-19 02:32:00,48.0,41.0,30.07,South,182,0.0,0.0,78,0.00,,,0.00,,2013-05-19 09:32:00,
2013-05-19 02:42:00,48.0,41.0,30.07,South,182,0.0,0.0,78,0.00,,,0.00,,2013-05-19 09:42:00,
2013-05-19 02:52:00,47.0,40.0,30.03,South,183,0.0,0.0,77,0.00,,,0.00,,2013-05-19 09:52:00,
2013-05-19 03:00:00,46.0,40.0,30.03,South,183,0.0,0.0,79,0.00,,,0.00,,2013-05-19 10:00:00,
2013-05-19 03:02:00,47.0,41.0,30.03,South,183,0.0,0.0,78,0.00,,,0.00,,2013-05-19 10:02:00,
2013-05-19 03:12:00,46.0,40.0,30.03,South,183,0.0,0.0,79,0.00,,,0.00,,2013-05-19 10:12:00,
2013-05-19 03:22:00,46.0,40.0,30.03,South,183,0.0,0.0,79,0.00,,,0.00,,2013-05-19 10:22:00,
2013-05-19 03:32:00,46.0,40.0,30.03,South,183,0.0,0.0,79,0.00,,,0.00,,2013-05-19 10:32:00,
2013-05-19 03:42:00,46.0,40.0,30.03,South,183,0.0,0.0,79,0.00,,,0.00,,2013-05-19 10:42:00,
2013-05-19 03:52:00,46.0,40.0,30.03,South,183,0.0,0.0,79,0.00,,,0.00,,2013-05-19 10:52:00,
2013-05-19 04:22:00,44.0,39.0,30.04,South,183,0.0,0.0,81,0.00,,,0.00,,2013-05-19 11:22:00,
2013-05-19 04:32:00,44.0,38.0,30.07,South,182,0.0,0.0,80,0.00,,,0.00,,2013-05-19 11:32:00,
2013-05-19 04:42:00,44.0,38.0,30.07,South,182,0.0,0.0,80,0.00,,,0.00,,2013-05-19 11:42:00,
2013-05-19 04:52:00,43.0,38.0,30.05,South,183,0.0,0.0,82,0.00,,,0.00,,2013-05-19 11:52:00,
2013-05-19 05:01:00,43.0,38.0,30.08,South,182,0.0,0.0,83,0.00,,,0.00,,2013-05-19 12:01:00,
2013-05-19 05:31:00,43.0,38.0,30.05,South,183,0.0,0.0,84,0.00,,,0.00,,2013-05-19 12:31:00,
2013-05-19 05:41:00,43.0,38.0,30.05,South,183,0.0,0.0,84,0.00,,,0.00,,2013-05-19 12:41:00,
2013-05-19 05:52:00,42.0,38.0,30.05,South,183,0.0,0.0,84,0.00,,,0.00,,2013-05-19 12:52:00,
2013-05-19 06:01:00,42.0,38.0,30.05,South,183,0.0,0.0,84,0.00,,,0.00,,2013-05-19 13:01:00,
2013-05-19 06:31:00,41.0,37.0,30.05,South,183,0.0,0.0,85,0.00,,,0.00,,2013-05-19 13:31:00,
2013-05-19 06:42:00,41.0,37.0,30.05,South,183,0.0,0.0,85,0.00,,,0.00,,2013-05-19 13:42:00,
2013-05-19 06:52:00,41.0,37.0,30.06,South,183,0.0,0.0,85,0.00,,,0.00,,2013-05-19 13:52:00,
2013-05-19 07:02:00,42.0,38.0,30.09,South,183,0.0,0.0,86,0.00,,,0.00,,2013-05-19 14:02:00,
2013-05-19 07:21:00,42.0,38.0,30.10,South,182,0.0,0.0,86,0.00,,,0.00,,2013-05-19 14:21:00,
2013-05-19 07:31:00,42.0,38.0,30.06,NE,50,0.0,0.0,87,0.00,,,0.00,,2013-05-19 14:31:00,
2013-05-19 07:41:00,42.0,38.0,30.06,NE,50,0.0,0.0,87,0.00,,,0.00,,2013-05-19 14:41:00,
2013-05-19 07:52:00,42.0,38.0,30.06,NE,50,0.0,0.0,87,0.00,,,0.00,,2013-05-19 14:52:00,
2013-05-19 08:01:00,45.0,42.0,30.11,NE,50,0.0,0.0,90,0.00,,,0.00,,2013-05-19 15:01:00,
2013-05-19 08:11:00,45.0,42.0,30.11,NE,50,0.0,0.0,90,0.00,,,0.00,,2013-05-19 15:11:00,
2013-05-19 08:32:00,47.0,44.0,30.07,NE,50,0.0,0.0,90,0.00,,,0.00,,2013-05-19 15:32:00,
2013-05-19 08:42:00,47.0,44.0,30.07,NE,50,0.0,0.0,90,0.00,,,0.00,,2013-05-19 15:42:00,
2013-05-19 08:53:00,49.0,46.0,30.09,NE,50,0.0,1.0,91,0.00,,,0.00,,2013-05-19 15:53:00,
2013-05-19 09:03:00,50.0,47.0,30.07,NE,50,0.0,0.0,91,0.00,,,0.00,,2013-05-19 16:03:00,
2013-05-19 09:32:00,57.0,49.0,30.06,SE,133,0.0,3.0,74,0.00,,,0.00,,2013-05-19 16:32:00,
2013-05-19 09:42:00,57.0,49.0,30.06,SE,133,0.0,3.0,74,0.00,,,0.00,,2013-05-19 16:42:00,
2013-05-19 09:52:00,57.0,49.0,30.06,SE,133,0.0,3.0,74,0.00,,,0.00,,2013-05-19 16:52:00,
2013-05-19 10:01:00,62.0,50.0,30.06,ESE,102,0.0,2.0,64,0.00,,,0.00,,2013-05-19 17:01:00,
2013-05-19 10:12:00,62.0,50.0,30.06,ESE,102,0.0,2.0,64,0.00,,,0.00,,2013-05-19 17:12:00,
2013-05-19 10:22:00,67.0,51.0,30.07,SSE,162,0.0,4.0,56,0.00,,,0.00,,2013-05-19 17:22:00,
2013-05-19 10:32:00,70.0,50.0,30.04,SE,140,0.0,3.0,50,0.00,,,0.00,,2013-05-19 17:32:00,
2013-05-19 10:42:00,70.0,50.0,30.04,SE,140,0.0,3.0,50,0.00,,,0.00,,2013-05-19 17:42:00,
2013-05-19 10:52:00,72.0,51.0,30.08,SE,140,0.0,1.0,47,0.00,,,0.00,,2013-05-19 17:52:00,
2013-05-19 11:02:00,74.0,49.0,30.09,East,84,0.0,5.0,42,0.00,,,0.00,,2013-05-19 18:02:00,
2013-05-19 11:12:00,74.0,49.0,30.09,East,84,0.0,5.0,42,0.00,,,0.00,,2013-05-19 18:12:00,
2013-05-19 11:21:00,74.0,43.0,30.07,ESE,112,2.0,6.0,33,0.00,,,0.00,,2013-05-19 18:21:00,
2013-05-19 11:31:00,76.0,47.0,30.04,SSW,199,0.0,6.0,36,0.00,,,0.00,,2013-05-19 18:31:00,
2013-05-19 11:42:00,76.0,47.0,30.04,SSW,199,0.0,6.0,36,0.00,,,0.00,,2013-05-19 18:42:00,
2013-05-19 11:52:00,76.0,45.0,30.03,SSE,150,1.0,6.0,33,0.00,,,0.00,,2013-05-19 18:52:00,
2013-05-19 12:01:00,77.0,46.0,30.03,ESE,108,0.0,3.0,33,0.00,,,0.00,,2013-05-19 19:01:00,
2013-05-19 12:11:00,77.0,46.0,30.03,ESE,108,0.0,3.0,33,0.00,,,0.00,,2013-05-19 19:11:00,
2013-05-19 12:21:00,78.0,47.0,30.03,East,91,1.0,7.0,33,0.00,,,0.00,,2013-05-19 19:21:00,
2013-05-19 12:31:00,78.0,47.0,30.03,East,91,1.0,7.0,33,0.00,,,0.00,,2013-05-19 19:31:00,
2013-05-19 12:41:00,78.0,47.0,30.03,East,91,1.0,7.0,33,0.00,,,0.00,,2013-05-19 19:41:00,
2013-05-19 12:52:00,78.0,47.0,30.03,East,91,1.0,7.0,33,0.00,,,0.00,,2013-05-19 19:52:00,
2013-05-19 13:02:00,82.0,42.0,30.01,East,100,1.0,7.0,24,0.00,,,0.00,,2013-05-19 20:02:00,
2013-05-19 13:11:00,82.0,42.0,30.01,East,100,1.0,7.0,24,0.00,,,0.00,,2013-05-19 20:11:00,
2013-05-19 13:21:00,82.0,42.0,30.01,East,100,1.0,7.0,24,0.00,,,0.00,,2013-05-19 20:21:00,
2013-05-19 13:31:00,83.0,42.0,30.00,ENE,71,0.0,5.0,24,0.00,,,0.00,,2013-05-19 20:31:00,
2013-05-19 13:41:00,83.0,42.0,30.00,ENE,71,0.0,5.0,24,0.00,,,0.00,,2013-05-19 20:41:00,
2013-05-19 13:51:00,84.0,39.0,29.99,ESE,118,0.0,9.0,20,0.00,,,0.00,,2013-05-19 20:51:00,
2013-05-19 14:02:00,84.0,39.0,29.99,SE,132,0.0,4.0,20,0.00,,,0.00,,2013-05-19 21:02:00,
2013-05-19 14:11:00,84.0,39.0,29.99,SE,132,0.0,4.0,20,0.00,,,0.00,,2013-05-19 21:11:00,
2013-05-19 14:22:00,84.0,39.0,29.99,SE,132,0.0,4.0,20,0.00,,,0.00,,2013-05-19 21:22:00,
2013-05-19 14:32:00,84.0,43.0,30.01,North,352,2.0,10.0,24,0.00,,,0.00,,2013-05-19 21:32:00,
2013-05-19 14:42:00,84.0,43.0,30.01,North,352,2.0,10.0,24,0.00,,,0.00,,2013-05-19 21:42:00,
2013-05-19 14:53:00,84.0,43.0,30.01,North,352,2.0,10.0,24,0.00,,,0.00,,2013-05-19 21:53:00,
2013-05-19 15:02:00,83.0,42.0,29.98,NNW,337,2.0,8.0,24,0.00,,,0.00,,2013-05-19 22:02:00,
2013-05-19 15:12:00,83.0,42.0,29.98,NNW,337,2.0,8.0,24,0.00,,,0.00,,2013-05-19 22:12:00,
2013-05-19 15:22:00,83.0,42.0,29.98,NNE,12,3.0,11.0,24,0.00,,,0.00,,2013-05-19 22:22:00,
2013-05-19 15:33:00,83.0,42.0,29.98,North,5,1.0,8.0,24,0.00,,,0.00,,2013-05-19 22:33:00,
2013-05-19 15:42:00,83.0,42.0,29.98,North,5,1.0,8.0,24,0.00,,,0.00,,2013-05-19 22:42:00,
2013-05-19 15:52:00,85.0,44.0,29.99,NNE,24,2.0,6.0,24,0.00,,,0.00,,2013-05-19 22:52:00,
2013-05-19 16:02:00,84.0,40.0,29.97,NNW,348,3.0,6.0,21,0.00,,,0.00,,2013-05-19 23:02:00,
2013-05-19 16:11:00,84.0,40.0,29.97,NNW,348,3.0,6.0,21,0.00,,,0.00,,2013-05-19 23:11:00,
2013-05-19 16:21:00,84.0,40.0,29.97,NNW,348,3.0,6.0,21,0.00,,,0.00,,2013-05-19 23:21:00,
2013-05-19 16:31:00,86.0,43.0,29.99,North,7,1.0,5.0,22,0.00,,,0.00,,2013-05-19 23:31:00,
2013-05-19 16:42:00,86.0,45.0,29.96,West,270,0.0,7.0,24,0.00,,,0.00,,2013-05-19 23:42:00,
2013-05-19 16:52:00,86.0,45.0,29.96,West,270,0.0,7.0,24,0.00,,,0.00,,2013-05-19 23:52:00,
2013-05-19 17:01:00,85.0,42.0,29.95,North,360,1.0,5.0,22,0.00,,,0.00,,2013-05-20 00:01:00,
2013-05-19 17:11:00,85.0,42.0,29.95,North,360,1.0,5.0,22,0.00,,,0.00,,2013-05-20 00:11:00,
2013-05-19 17:21:00,84.0,43.0,29.96,North,353,0.0,5.0,24,0.00,,,0.00,,2013-05-20 00:21:00,
2013-05-19 17:31:00,84.0,43.0,29.96,North,353,0.0,5.0,24,0.00,,,0.00,,2013-05-20 00:31:00,
2013-05-19 17:41:00,84.0,43.0,29.96,North,353,0.0,5.0,24,0.00,,,0.00,,2013-05-20 00:41:00,
2013-05-19 17:52:00,84.0,42.0,29.95,North,358,1.0,6.0,23,0.00,,,0.00,,2013-05-20 00:52:00,
2013-05-19 18:01:00,85.0,44.0,29.94,NNE,17,1.0,5.0,24,0.00,,,0.00,,2013-05-20 01:01:00,
2013-05-19 18:11:00,85.0,44.0,29.94,NNE,17,1.0,5.0,24,0.00,,,0.00,,2013-05-20 01:11:00,
2013-05-19 18:21:00,85.0,44.0,29.95,NNE,19,0.0,3.0,24,0.00,,,0.00,,2013-05-20 01:21:00,
2013-05-19 18:31:00,85.0,44.0,29.95,NNE,19,0.0,3.0,24,0.00,,,0.00,,2013-05-20 01:31:00,
2013-05-19 18:41:00,85.0,44.0,29.95,NNE,19,0.0,3.0,24,0.00,,,0.00,,2013-05-20 01:41:00,
2013-05-19 18:52:00,85.0,44.0,29.94,NNE,21,0.0,1.0,24,0.00,,,0.00,,2013-05-20 01:52:00,
2013-05-19 19:01:00,85.0,44.0,29.94,NNE,21,0.0,1.0,24,0.00,,,0.00,,2013-05-20 02:01:00,
2013-05-19 19:11:00,85.0,44.0,29.94,NNE,21,0.0,1.0,24,0.00,,,0.00,,2013-05-20 02:11:00,
2013-05-19 19:21:00,85.0,44.0,29.93,ENE,66,0.0,2.0,24,0.00,,,0.00,,2013-05-20 02:21:00,
2013-05-19 19:31:00,85.0,44.0,29.93,ENE,66,0.0,2.0,24,0.00,,,0.00,,2013-05-20 02:31:00,
2013-05-19 19:42:00,85.0,44.0,29.93,ENE,66,0.0,2.0,24,0.00,,,0.00,,2013-05-20 02:42:00,
2013-05-19 19:51:00,79.0,42.0,29.93,ENE,65,0.0,0.0,27,0.00,,,0.00,,2013-05-20 02:51:00,
2013-05-19 20:01:00,78.0,47.0,29.93,ENE,65,0.0,0.0,33,0.00,,,0.00,,2013-05-20 03:01:00,
2013-05-19 20:11:00,75.0,48.0,29.94,ENE,65,0.0,0.0,39,0.00,,,0.00,,2013-05-20 03:11:00,
2013-05-19 20:21:00,75.0,48.0,29.94,ENE,65,0.0,0.0,39,0.00,,,0.00,,2013-05-20 03:21:00,
2013-05-19 20:33:00,75.0,48.0,29.94,ENE,65,0.0,0.0,39,0.00,,,0.00,,2013-05-20 03:33:00,
2013-05-19 20:42:00,70.0,49.0,29.93,SSW,199,0.0,0.0,47,0.00,,,0.00,,2013-05-20 03:42:00,
2013-05-19 20:52:00,70.0,49.0,29.93,SSW,199,0.0,0.0,47,0.00,,,0.00,,2013-05-20 03:52:00,
2013-05-19 21:02:00,70.0,49.0,29.93,SSW,199,0.0,0.0,47,0.00,,,0.00,,2013-05-20 04:02:00,
2013-05-19 21:12:00,70.0,49.0,29.93,SSW,199,0.0,0.0,47,0.00,,,0.00,,2013-05-20 04:12:00,
2013-05-19 21:22:00,70.0,49.0,29.93,SSW,199,0.0,0.0,47,0.00,,,0.00,,2013-05-20 04:22:00,
2013-05-19 21:33:00,66.0,49.0,29.98,SSW,198,0.0,0.0,54,0.00,,,0.00,,2013-05-20 04:33:00,
2013-05-19 21:43:00,66.0,49.0,29.98,SSW,198,0.0,0.0,54,0.00,,,0.00,,2013-05-20 04:43:00,
2013-05-19 21:52:00,63.0,48.0,29.95,SSW,199,0.0,0.0,58,0.00,,,0.00,,2013-05-20 04:52:00,
2013-05-19 22:02:00,61.0,48.0,29.98,SSW,198,0.0,0.0,63,0.00,,,0.00,,2013-05-20 05:02:00,
2013-05-19 22:11:00,61.0,48.0,29.98,SSW,198,0.0,0.0,63,0.00,,,0.00,,2013-05-20 05:11:00,
2013-05-19 22:21:00,61.0,48.0,29.98,SSW,198,0.0,0.0,63,0.00,,,0.00,,2013-05-20 05:21:00,
2013-05-19 22:32:00,59.0,48.0,29.95,SSW,199,0.0,1.0,67,0.00,,,0.00,,2013-05-20 05:32:00,
2013-05-19 22:42:00,59.0,48.0,29.95,SSW,199,0.0,1.0,67,0.00,,,0.00,,2013-05-20 05:42:00,
2013-05-19 22:51:00,58.0,47.0,29.95,SSW,199,0.0,0.0,68,0.00,,,0.00,,2013-05-20 05:51:00,
2013-05-19 23:01:00,57.0,47.0,29.95,SSW,199,0.0,0.0,70,0.00,,,0.00,,2013-05-20 06:01:00,
2013-05-19 23:11:00,56.0,47.0,29.96,SSW,199,0.0,0.0,73,0.00,,,0.00,,2013-05-20 06:11:00,
2013-05-19 23:21:00,56.0,47.0,29.96,SSW,199,0.0,0.0,73,0.00,,,0.00,,2013-05-20 06:21:00,
2013-05-19 23:31:00,55.0,47.0,29.96,SSW,199,0.0,0.0,75,0.00,,,0.00,,2013-05-20 06:31:00,
2013-05-19 23:41:00,55.0,47.0,29.96,SSW,199,0.0,0.0,75,0.00,,,0.00,,2013-05-20 06:41:00,
2013-05-19 23:51:00,54.0,47.0,29.95,SSW,199,0.0,0.0,76,0.00,,,0.00,,2013-05-20 06:51:00,